This is the latest recevied weather packets stored in our database for station/object OK2CME-6. If no packets are shown the sender has not sent any weather packets the latest 10 day(s).
| Time | Temp. | Humidity | Pressure | Rain* | Wind** | Luminosity | Snow |
|---|---|---|---|---|---|---|---|
| 1777954395 | 12.22° C | 53% | 1014 hPa | 0 mm | - | 16 W/m² | - |
| 1777928737 | 15.56° C | 47% | 1017.3 hPa | 0 mm | - | 0 W/m² | - |
| 1777927537 | 16.11° C | 47% | 1017.2 hPa | 0 mm | - | 0 W/m² | - |
| 1777925197 | 16.67° C | 47% | 1017.2 hPa | 0 mm | - | 0 W/m² | - |
| 1777923997 | 16.67° C | 47% | 1017.4 hPa | 0 mm | - | 0 W/m² | - |
| 1777922797 | 16.67° C | 47% | 1017.4 hPa | 0 mm | - | 0 W/m² | - |
| 1777918885 | 17.78° C | 47% | 1017 hPa | 0 mm | - | 5 W/m² | - |
| 1777916968 | 19.44° C | 44% | 1017.2 hPa | 0 mm | - | 18 W/m² | - |
| 1777915768 | 20.56° C | 42% | 1016.9 hPa | 0 mm | - | 29 W/m² | - |
| 1777914568 | 20.56° C | 41% | 1017.3 hPa | 0 mm | - | 45 W/m² | - |
| 1777913368 | 21.11° C | 40% | 1017.2 hPa | 0 mm | - | 66 W/m² | - |
| 1777912168 | 21.67° C | 39% | 1017.2 hPa | 0 mm | - | 112 W/m² | - |
| 1777862902 | 11.67° C | 58% | 1019.1 hPa | 0 mm | - | 0 W/m² | - |
| 1777861702 | 11.67° C | 57% | 1019.2 hPa | 0 mm | - | 0 W/m² | - |
| 1777860502 | 12.22° C | 55% | 1019.1 hPa | 0 mm | - | 0 W/m² | - |
| 1777859301 | 11.67° C | 55% | 1019.3 hPa | 0 mm | - | 0 W/m² | - |
| 1777858101 | 11.67° C | 54% | 1019.1 hPa | 0 mm | - | 0 W/m² | - |
| 1777856901 | 11.67° C | 53% | 1019.4 hPa | 0 mm | - | 0 W/m² | - |
| 1777855701 | 12.22° C | 52% | 1019.1 hPa | 0 mm | - | 0 W/m² | - |
| 1777854501 | 12.22° C | 51% | 1019.5 hPa | 0 mm | - | 0 W/m² | - |
| 1777853300 | 12.22° C | 50% | 1019.4 hPa | 0 mm | - | 0 W/m² | - |
| 1777852100 | 12.78° C | 49% | 1019.4 hPa | 0 mm | - | 0 W/m² | - |
| 1777850900 | 12.22° C | 50% | 1019.5 hPa | 0 mm | - | 0 W/m² | - |
| 1777849700 | 12.78° C | 48% | 1019.7 hPa | 0 mm | - | 0 W/m² | - |
| 1777848500 | 13.33° C | 47% | 1019.7 hPa | 0 mm | - | 0 W/m² | - |
* Rain latest hour (hover to see other rain measurements)
** Current wind speed in m/s (hover to see current wind gust speed)